createdAt,value
2023-04-28T00:00:12.094Z,5.30
2023-04-28T00:02:40.378Z,5.68
2023-04-28T00:05:09.446Z,6.30
2023-04-28T00:07:38.094Z,5.80
2023-04-28T00:10:09.058Z,5.78
2023-04-28T00:12:37.763Z,5.28
2023-04-28T00:15:06.636Z,6.05
2023-04-28T00:17:35.429Z,5.35
2023-04-28T00:20:04.432Z,5.78
2023-04-28T00:22:32.593Z,5.93
2023-04-28T00:25:00.807Z,5.20
2023-04-28T00:27:30.370Z,5.20
2023-04-28T00:29:58.830Z,5.50
2023-04-28T00:32:27.053Z,5.80
2023-04-28T00:34:55.185Z,6.00
2023-04-28T00:37:23.502Z,5.20
2023-04-28T00:39:56.586Z,5.55
2023-04-28T00:42:25.393Z,5.60
2023-04-28T00:44:54.885Z,4.78
2023-04-28T00:47:23.875Z,6.05
2023-04-28T00:49:53.963Z,5.63
2023-04-28T00:52:22.096Z,6.35
2023-04-28T00:54:51.039Z,6.03
2023-04-28T00:57:19.226Z,6.40
2023-04-28T00:59:47.380Z,6.07
2023-04-28T01:02:18.314Z,6.05
2023-04-28T01:04:47.704Z,6.10
2023-04-28T01:07:16.847Z,6.25
2023-04-28T01:09:46.175Z,5.78
2023-04-28T01:12:15.507Z,6.60
2023-04-28T01:14:45.983Z,6.30
2023-04-28T01:17:14.805Z,6.88
2023-04-28T01:19:44.293Z,6.60
2023-04-28T01:22:15.263Z,6.20
2023-04-28T01:24:45.760Z,6.90
2023-04-28T01:27:15.628Z,6.63
2023-04-28T01:29:43.767Z,5.97
2023-04-28T01:32:12.115Z,6.70
2023-04-28T01:34:41.090Z,6.93
2023-04-28T01:37:09.681Z,7.28
2023-04-28T01:39:38.733Z,7.47
2023-04-28T01:42:08.347Z,7.65
2023-04-28T01:44:36.487Z,6.97
2023-04-28T01:47:04.661Z,7.10
2023-04-28T01:49:32.782Z,7.20
2023-04-28T01:52:00.990Z,7.93
2023-04-28T01:54:30.886Z,8.40
2023-04-28T01:56:59.072Z,8.52
2023-04-28T01:59:29.608Z,7.40
2023-04-28T02:01:57.937Z,7.22
2023-04-28T02:04:26.184Z,7.88
2023-04-28T02:06:54.364Z,7.80
2023-04-28T02:09:22.507Z,7.85
2023-04-28T02:12:13.229Z,8.45
2023-04-28T02:14:42.848Z,8.13
2023-04-28T02:17:11.264Z,8.43
2023-04-28T02:19:39.577Z,8.80
2023-04-28T02:22:08.350Z,9.07
2023-04-28T02:24:38.569Z,8.63
2023-04-28T02:27:06.945Z,9.23
2023-04-28T02:29:35.102Z,10.27
2023-04-28T02:32:04.627Z,9.18
2023-04-28T02:34:32.804Z,10.35
2023-04-28T02:37:02.935Z,10.23
2023-04-28T02:39:33.353Z,11.25
2023-04-28T02:42:01.574Z,11.02
2023-04-28T02:44:29.938Z,9.50
2023-04-28T02:46:58.644Z,10.93
2023-04-28T02:49:29.229Z,10.18
2023-04-28T02:51:58.460Z,9.65
2023-04-28T02:54:28.449Z,10.52
2023-04-28T02:56:59.392Z,11.93
2023-04-28T02:59:28.231Z,11.57
2023-04-28T03:01:56.705Z,12.18
2023-04-28T03:04:25.099Z,11.13
2023-04-28T03:06:54.859Z,11.55
2023-04-28T03:09:23.017Z,11.73
2023-04-28T03:11:51.291Z,11.60
2023-04-28T03:14:19.409Z,13.30
2023-04-28T03:16:47.887Z,12.75
2023-04-28T03:19:16.300Z,11.23
2023-04-28T03:21:44.518Z,10.75
2023-04-28T03:24:16.056Z,9.75
2023-04-28T03:26:45.433Z,11.00
2023-04-28T03:29:13.617Z,11.50
2023-04-28T03:31:42.618Z,11.30
2023-04-28T03:34:10.916Z,10.27
2023-04-28T03:36:39.266Z,10.35
2023-04-28T03:39:17.039Z,11.73
2023-04-28T03:41:45.268Z,12.23
2023-04-28T03:44:45.414Z,12.57
2023-04-28T03:47:15.130Z,12.85
2023-04-28T03:49:43.368Z,12.30
2023-04-28T03:52:11.745Z,12.60
2023-04-28T03:54:42.421Z,11.90
2023-04-28T03:57:11.403Z,11.88
2023-04-28T03:59:39.606Z,12.45
2023-04-28T04:02:08.365Z,11.82
2023-04-28T04:04:36.937Z,11.02
2023-04-28T04:07:05.634Z,12.20
2023-04-28T04:09:33.747Z,11.82
2023-04-28T04:12:03.357Z,12.63
2023-04-28T04:14:31.484Z,13.18
2023-04-28T04:16:59.640Z,12.63
2023-04-28T04:19:28.065Z,11.77
2023-04-28T04:21:57.117Z,11.60
2023-04-28T04:24:25.425Z,12.88
2023-04-28T04:26:55.353Z,13.13
2023-04-28T04:29:44.145Z,12.68
2023-04-28T04:32:14.504Z,12.77
2023-04-28T04:34:44.847Z,13.05
2023-04-28T04:37:13.234Z,13.05
2023-04-28T04:39:48.521Z,12.85
2023-04-28T04:42:24.959Z,13.85
2023-04-28T04:45:14.082Z,15.07
2023-04-28T04:47:43.801Z,14.73
2023-04-28T04:50:13.057Z,13.93
2023-04-28T04:52:41.559Z,14.98
2023-04-28T04:55:11.230Z,14.95
2023-04-28T04:57:41.667Z,14.00
2023-04-28T05:00:30.600Z,14.32
2023-04-28T05:03:00.592Z,14.77
2023-04-28T05:05:28.963Z,13.10
2023-04-28T05:08:14.423Z,15.27
2023-04-28T05:10:43.158Z,15.27
2023-04-28T05:13:12.068Z,14.95
2023-04-28T05:15:42.376Z,15.18
2023-04-28T05:18:30.999Z,13.95
2023-04-28T05:20:59.176Z,13.63
2023-04-28T05:23:27.984Z,13.93
2023-04-28T05:25:56.989Z,14.02
2023-04-28T05:28:25.381Z,15.30
2023-04-28T05:30:58.115Z,15.55
2023-04-28T05:33:27.345Z,15.70
2023-04-28T05:35:55.542Z,15.20
2023-04-28T05:38:23.715Z,15.02
2023-04-28T05:40:52.641Z,13.82
2023-04-28T05:43:21.267Z,15.55
2023-04-28T05:45:50.664Z,14.73
2023-04-28T05:48:20.331Z,14.77
2023-04-28T05:50:48.505Z,15.25
2023-04-28T05:53:16.709Z,16.75
2023-04-28T05:55:45.138Z,16.08
2023-04-28T05:58:13.419Z,15.50
2023-04-28T06:00:41.569Z,14.82
2023-04-28T06:03:11.352Z,14.15
2023-04-28T06:05:42.011Z,14.95
2023-04-28T06:08:11.332Z,14.57
2023-04-28T06:10:39.939Z,15.43
2023-04-28T06:13:09.439Z,15.20
2023-04-28T06:15:37.684Z,15.13
2023-04-28T06:18:07.389Z,14.50
2023-04-28T06:20:35.708Z,14.93
2023-04-28T06:23:06.790Z,14.60
2023-04-28T06:25:35.072Z,15.38
2023-04-28T06:28:03.387Z,16.42
2023-04-28T06:30:31.711Z,15.93
2023-04-28T06:32:59.962Z,14.15
2023-04-28T06:35:29.172Z,14.23
2023-04-28T06:37:57.684Z,14.27
2023-04-28T06:40:30.009Z,14.90
2023-04-28T06:42:59.803Z,13.95
2023-04-28T06:45:45.120Z,15.23
2023-04-28T06:48:13.692Z,15.40
2023-04-28T06:50:43.622Z,16.65
2023-04-28T06:53:12.587Z,15.80
2023-04-28T06:55:42.233Z,14.35
2023-04-28T06:58:11.328Z,13.35
2023-04-28T07:00:39.800Z,12.88
2023-04-28T07:03:08.202Z,13.63
2023-04-28T07:05:36.962Z,14.30
2023-04-28T07:08:05.302Z,14.95
2023-04-28T07:10:33.582Z,15.27
2023-04-28T07:13:03.069Z,14.93
2023-04-28T07:15:31.761Z,15.10
2023-04-28T07:18:00.227Z,13.98
2023-04-28T07:20:28.561Z,15.05
2023-04-28T07:22:56.731Z,13.88
2023-04-28T07:25:25.049Z,13.70
2023-04-28T07:27:54.145Z,14.13
2023-04-28T07:30:27.920Z,13.43
2023-04-28T07:32:56.780Z,13.05
2023-04-28T07:35:25.670Z,13.13
2023-04-28T07:37:54.716Z,12.27
2023-04-28T07:40:23.292Z,12.77
2023-04-28T07:42:51.648Z,13.32
2023-04-28T07:45:19.980Z,13.70
2023-04-28T07:47:49.507Z,14.18
2023-04-28T07:50:18.056Z,12.35
2023-04-28T07:52:46.226Z,13.05
2023-04-28T07:55:14.419Z,12.63
2023-04-28T07:57:42.569Z,12.63
2023-04-28T08:00:11.938Z,12.82
2023-04-28T08:02:40.950Z,12.55
2023-04-28T08:05:11.379Z,13.00
2023-04-28T08:07:39.703Z,12.90
2023-04-28T08:10:09.448Z,12.63
2023-04-28T08:12:38.305Z,12.00
2023-04-28T08:15:07.540Z,12.75
2023-04-28T08:17:35.781Z,12.57
2023-04-28T08:20:05.827Z,10.80
2023-04-28T08:22:35.475Z,11.63
2023-04-28T08:25:03.990Z,11.80
2023-04-28T08:27:34.103Z,12.63
2023-04-28T08:30:02.688Z,11.25
2023-04-28T08:32:30.974Z,11.43
2023-04-28T08:35:00.253Z,12.18
2023-04-28T08:37:28.533Z,10.45
2023-04-28T08:40:02.218Z,11.30
2023-04-28T08:42:31.274Z,10.50
2023-04-28T08:45:00.459Z,10.77
2023-04-28T08:47:33.988Z,10.60
2023-04-28T08:50:05.209Z,11.13
2023-04-28T08:52:33.517Z,10.98
2023-04-28T08:55:09.881Z,11.45
2023-04-28T08:57:41.464Z,10.10
2023-04-28T09:00:11.113Z,10.35
2023-04-28T09:02:42.162Z,11.20
2023-04-28T09:05:12.393Z,10.15
2023-04-28T09:07:41.203Z,10.55
2023-04-28T09:10:19.529Z,11.32
2023-04-28T09:12:48.910Z,10.63
2023-04-28T09:15:34.114Z,10.93
2023-04-28T09:18:03.384Z,10.13
2023-04-28T09:20:33.882Z,10.98
2023-04-28T09:23:17.275Z,10.90
2023-04-28T09:26:07.686Z,11.38
2023-04-28T09:28:37.124Z,10.75
2023-04-28T09:31:05.905Z,10.88
2023-04-28T09:33:34.293Z,10.40
2023-04-28T09:36:02.479Z,11.07
2023-04-28T09:38:30.848Z,10.38
2023-04-28T09:41:00.815Z,10.60
2023-04-28T09:43:32.222Z,10.38
2023-04-28T09:46:01.916Z,9.27
2023-04-28T09:48:32.167Z,9.82
2023-04-28T09:51:02.589Z,9.88
2023-04-28T09:53:31.774Z,10.77
2023-04-28T09:56:02.060Z,10.35
2023-04-28T09:58:32.964Z,9.75
2023-04-28T10:01:02.306Z,9.10
2023-04-28T10:03:32.086Z,9.25
2023-04-28T10:06:00.826Z,8.82
2023-04-28T10:08:29.475Z,9.10
2023-04-28T10:10:58.848Z,8.63
2023-04-28T10:13:27.182Z,9.73
2023-04-28T10:15:58.513Z,8.93
2023-04-28T10:18:27.738Z,9.73
2023-04-28T10:20:59.816Z,8.93
2023-04-28T10:23:50.849Z,8.70
2023-04-28T10:26:21.994Z,8.43
2023-04-28T10:28:52.246Z,8.82
2023-04-28T10:31:23.344Z,8.77
2023-04-28T10:33:51.823Z,9.45
2023-04-28T10:36:48.613Z,8.80
2023-04-28T10:39:16.832Z,8.65
2023-04-28T10:41:47.611Z,9.75
2023-04-28T10:44:44.318Z,8.88
2023-04-28T10:47:13.946Z,9.82
2023-04-28T10:50:08.282Z,9.88
2023-04-28T10:52:52.192Z,8.52
2023-04-28T10:55:36.508Z,9.80
2023-04-28T10:58:33.741Z,10.10
2023-04-28T11:01:27.679Z,9.75
2023-04-28T11:04:04.832Z,8.90
2023-04-28T11:06:36.095Z,9.75
2023-04-28T11:09:25.443Z,9.50
2023-04-28T11:12:06.919Z,10.18
2023-04-28T11:14:36.217Z,9.10
2023-04-28T11:17:06.642Z,9.05
2023-04-28T11:19:38.036Z,9.68
2023-04-28T11:22:11.562Z,10.82
2023-04-28T11:24:39.894Z,11.20
2023-04-28T11:27:08.476Z,10.80
2023-04-28T11:29:38.167Z,10.07
2023-04-28T11:32:08.212Z,10.30
2023-04-28T11:34:38.892Z,6.80
2023-04-28T11:37:08.523Z,8.13
2023-04-28T11:39:37.252Z,6.70
2023-04-28T11:42:11.430Z,6.10
2023-04-28T11:44:40.018Z,6.97
2023-04-28T11:47:11.086Z,7.55
2023-04-28T11:49:47.731Z,7.70
2023-04-28T11:52:16.542Z,7.85
2023-04-28T11:54:44.778Z,7.97
2023-04-28T11:57:19.081Z,7.05
2023-04-28T11:59:48.909Z,6.10
2023-04-28T12:02:25.456Z,5.38
2023-04-28T12:04:55.251Z,4.50
2023-04-28T12:07:23.701Z,3.58
2023-04-28T12:10:13.582Z,3.50
2023-04-28T12:12:50.839Z,3.70
2023-04-28T12:15:21.815Z,3.95
2023-04-28T12:17:51.696Z,4.35
2023-04-28T12:20:37.669Z,4.47
2023-04-28T12:23:07.419Z,4.50
2023-04-28T12:25:44.905Z,5.40
2023-04-28T12:28:13.097Z,5.55
2023-04-28T12:30:42.462Z,6.25
2023-04-28T12:33:24.480Z,5.53
2023-04-28T12:35:55.959Z,5.57
2023-04-28T12:38:24.171Z,5.50
2023-04-28T12:40:52.860Z,5.78
2023-04-28T12:43:23.126Z,4.72
2023-04-28T12:45:52.957Z,4.35
2023-04-28T12:48:21.426Z,4.38
2023-04-28T12:50:49.953Z,4.70
2023-04-28T12:53:19.530Z,4.88
2023-04-28T12:55:47.685Z,4.10
2023-04-28T12:58:15.837Z,4.70
2023-04-28T13:00:44.410Z,4.22
2023-04-28T13:03:12.645Z,4.60
2023-04-28T13:05:40.896Z,4.47
2023-04-28T13:08:10.235Z,4.80
2023-04-28T13:10:40.324Z,5.28
2023-04-28T13:13:08.463Z,5.72
2023-04-28T13:15:38.910Z,6.10
2023-04-28T13:18:07.359Z,6.07
2023-04-28T13:20:35.857Z,6.00
2023-04-28T13:23:04.061Z,6.25
2023-04-28T13:25:32.359Z,5.95
2023-04-28T13:28:01.938Z,6.45
2023-04-28T13:30:30.292Z,7.00
2023-04-28T13:32:58.915Z,7.13
2023-04-28T13:35:27.598Z,7.43
2023-04-28T13:38:01.766Z,6.65
2023-04-28T13:40:30.176Z,6.95
2023-04-28T13:42:58.368Z,6.38
2023-04-28T13:45:28.953Z,6.65
2023-04-28T13:47:57.147Z,6.38
2023-04-28T13:50:26.180Z,6.88
2023-04-28T13:52:54.370Z,6.20
2023-04-28T13:55:27.652Z,5.95
2023-04-28T13:57:56.870Z,6.57
2023-04-28T14:00:25.285Z,6.35
2023-04-28T14:02:54.904Z,5.50
2023-04-28T14:05:23.485Z,6.18
2023-04-28T14:07:51.839Z,5.45
2023-04-28T14:10:20.566Z,5.47
2023-04-28T14:12:49.028Z,5.50
2023-04-28T14:15:17.960Z,4.80
2023-04-28T14:17:46.624Z,4.40
2023-04-28T14:20:16.306Z,4.60
2023-04-28T14:22:44.469Z,4.25
2023-04-28T14:25:12.907Z,4.88
2023-04-28T14:27:41.108Z,3.92
2023-04-28T14:30:10.302Z,5.03
2023-04-28T14:32:40.043Z,4.63
2023-04-28T14:35:09.605Z,4.32
2023-04-28T14:37:39.502Z,4.25
2023-04-28T14:40:09.072Z,4.45
2023-04-28T14:42:38.121Z,3.88
2023-04-28T14:45:07.838Z,3.95
2023-04-28T14:47:36.914Z,4.45
2023-04-28T14:50:06.568Z,3.67
2023-04-28T14:52:35.293Z,4.40
2023-04-28T14:55:05.185Z,3.65
2023-04-28T14:57:35.287Z,4.13
2023-04-28T15:00:03.985Z,3.17
2023-04-28T15:02:34.489Z,3.15
2023-04-28T15:05:03.114Z,3.45
2023-04-28T15:07:32.612Z,2.83
2023-04-28T15:10:01.310Z,3.13
2023-04-28T15:12:31.951Z,2.83
2023-04-28T15:15:00.180Z,2.90
2023-04-28T15:17:29.075Z,3.03
2023-04-28T15:19:57.320Z,2.85
2023-04-28T15:22:25.476Z,2.58
2023-04-28T15:24:55.321Z,2.60
2023-04-28T15:27:23.942Z,2.47
2023-04-28T15:29:53.692Z,2.83
2023-04-28T15:32:23.245Z,3.63
2023-04-28T15:34:52.182Z,4.05
2023-04-28T15:37:40.689Z,3.83
2023-04-28T15:40:10.284Z,4.07
2023-04-28T15:42:38.600Z,3.78
2023-04-28T15:45:10.868Z,4.35
2023-04-28T15:47:40.563Z,3.97
2023-04-28T15:50:10.855Z,4.07
2023-04-28T15:52:40.908Z,4.25
2023-04-28T15:55:10.465Z,4.32
2023-04-28T15:57:38.631Z,4.82
2023-04-28T16:00:10.177Z,4.47
2023-04-28T16:02:39.577Z,4.22
2023-04-28T16:05:08.496Z,3.95
2023-04-28T16:07:40.821Z,4.95
2023-04-28T16:10:11.500Z,4.68
2023-04-28T16:12:40.586Z,4.38
2023-04-28T16:15:13.047Z,4.50
2023-04-28T16:17:42.306Z,4.20
2023-04-28T16:20:11.640Z,4.55
2023-04-28T16:22:41.420Z,3.83
2023-04-28T16:25:10.803Z,4.03
2023-04-28T16:27:40.063Z,3.20
2023-04-28T16:30:10.948Z,3.58
2023-04-28T16:32:40.847Z,3.80
2023-04-28T16:35:14.906Z,3.00
2023-04-28T16:37:44.566Z,3.00
2023-04-28T16:40:15.040Z,3.67
2023-04-28T16:42:43.556Z,3.45
2023-04-28T16:45:14.291Z,3.60
2023-04-28T16:47:43.614Z,3.22
2023-04-28T16:50:14.461Z,3.80
2023-04-28T16:52:42.761Z,3.85
2023-04-28T16:55:11.337Z,3.63
2023-04-28T16:57:39.467Z,4.20
2023-04-28T17:00:09.241Z,4.13
2023-04-28T17:02:39.122Z,4.35
2023-04-28T17:05:08.018Z,3.78
2023-04-28T17:07:36.519Z,4.05
2023-04-28T17:10:05.170Z,3.47
2023-04-28T17:12:33.663Z,3.30
2023-04-28T17:15:01.971Z,3.17
2023-04-28T17:17:30.155Z,2.78
2023-04-28T17:20:02.183Z,3.20
2023-04-28T17:22:30.668Z,3.20
2023-04-28T17:24:59.268Z,3.60
2023-04-28T17:27:27.714Z,2.72
2023-04-28T17:29:55.881Z,3.78
2023-04-28T17:32:24.062Z,4.38
2023-04-28T17:34:52.697Z,4.25
2023-04-28T17:37:22.900Z,4.85
2023-04-28T17:39:51.674Z,4.40
2023-04-28T17:42:20.030Z,3.92
2023-04-28T17:44:48.429Z,4.25
2023-04-28T17:47:17.292Z,3.63
2023-04-28T17:49:45.872Z,3.42
2023-04-28T17:52:15.416Z,3.45
2023-04-28T17:54:44.984Z,2.92
2023-04-28T17:57:13.361Z,2.67
2023-04-28T17:59:42.611Z,2.60
2023-04-28T18:02:11.561Z,2.90
2023-04-28T18:04:39.837Z,3.35
2023-04-28T18:07:08.981Z,3.30
2023-04-28T18:09:37.229Z,2.50
2023-04-28T18:12:07.640Z,2.50
2023-04-28T18:14:35.902Z,1.83
2023-04-28T18:17:04.395Z,1.83
2023-04-28T18:19:32.581Z,1.60
2023-04-28T18:22:00.885Z,1.70
2023-04-28T18:24:29.032Z,1.70
2023-04-28T18:26:57.199Z,1.70
2023-04-28T18:29:26.745Z,1.30
2023-04-28T18:31:56.105Z,2.40
2023-04-28T18:34:24.309Z,1.92
2023-04-28T18:36:52.552Z,1.83
2023-04-28T18:39:20.790Z,1.88
2023-04-28T18:41:49.019Z,2.30
2023-04-28T18:44:17.245Z,2.13
2023-04-28T18:46:46.773Z,2.42
2023-04-28T18:49:15.334Z,1.95
2023-04-28T18:51:45.221Z,1.95
2023-04-28T18:54:15.816Z,1.90
2023-04-28T18:56:44.690Z,1.90
2023-04-28T18:59:12.974Z,2.78
2023-04-28T19:01:41.227Z,2.20
2023-04-28T19:04:10.992Z,2.40
2023-04-28T19:06:39.540Z,2.72
2023-04-28T19:09:08.495Z,2.78
2023-04-28T19:11:37.212Z,2.65
2023-04-28T19:14:05.321Z,2.95
2023-04-28T19:16:33.598Z,2.80
2023-04-28T19:19:01.873Z,3.35
2023-04-28T19:21:34.392Z,3.10
2023-04-28T19:24:02.871Z,3.55
2023-04-28T19:26:31.096Z,3.05
2023-04-28T19:28:59.382Z,3.38
2023-04-28T19:31:27.637Z,3.17
2023-04-28T19:33:56.680Z,2.60
2023-04-28T19:36:24.922Z,2.97
2023-04-28T19:38:55.556Z,3.45
2023-04-28T19:41:23.692Z,3.00
2023-04-28T19:43:51.987Z,2.95
2023-04-28T19:46:20.308Z,3.25
2023-04-28T19:48:48.466Z,2.80
2023-04-28T19:51:16.951Z,2.65
2023-04-28T19:53:48.724Z,4.75
2023-04-28T19:56:20.453Z,4.45
2023-04-28T19:58:48.767Z,4.45
2023-04-28T20:01:17.026Z,4.63
2023-04-28T20:03:45.401Z,5.28
2023-04-28T20:06:17.478Z,6.20
2023-04-28T20:08:45.876Z,6.32
2023-04-28T20:11:14.125Z,6.78
2023-04-28T20:13:44.170Z,7.28
2023-04-28T20:16:12.387Z,6.95
2023-04-28T20:18:40.605Z,6.55
2023-04-28T20:21:09.994Z,7.18
2023-04-28T20:23:38.236Z,7.18
2023-04-28T20:26:06.945Z,7.10
2023-04-28T20:28:35.129Z,6.13
2023-04-28T20:31:08.822Z,6.93
2023-04-28T20:33:36.970Z,6.10
2023-04-28T20:36:06.201Z,6.78
2023-04-28T20:38:34.563Z,6.63
2023-04-28T20:41:03.128Z,6.85
2023-04-28T20:43:31.443Z,7.05
2023-04-28T20:45:59.849Z,6.65
2023-04-28T20:48:29.966Z,6.85
2023-04-28T20:50:59.192Z,6.30
2023-04-28T20:53:27.330Z,7.03
2023-04-28T20:55:55.958Z,7.40
2023-04-28T20:58:24.305Z,7.35
2023-04-28T21:00:53.296Z,7.03
2023-04-28T21:03:23.699Z,6.85
2023-04-28T21:05:53.732Z,6.82
2023-04-28T21:08:21.880Z,6.75
2023-04-28T21:10:49.980Z,6.15
2023-04-28T21:13:18.169Z,6.38
2023-04-28T21:15:46.974Z,5.90
2023-04-28T21:18:15.465Z,6.50
2023-04-28T21:20:44.009Z,7.72
2023-04-28T21:23:13.552Z,7.40
2023-04-28T21:25:41.692Z,7.82
2023-04-28T21:28:10.874Z,7.55
2023-04-28T21:30:39.859Z,7.80
2023-04-28T21:33:08.198Z,8.00
2023-04-28T21:35:36.587Z,8.07
2023-04-28T21:38:04.873Z,8.32
2023-04-28T21:40:34.721Z,9.43
2023-04-28T21:43:02.977Z,9.35
2023-04-28T21:45:31.244Z,9.18
2023-04-28T21:48:00.205Z,9.77
2023-04-28T21:50:28.479Z,10.25
2023-04-28T21:52:57.124Z,11.32
2023-04-28T21:55:25.344Z,11.57
2023-04-28T21:57:58.776Z,10.77
2023-04-28T22:00:28.350Z,10.45
2023-04-28T22:02:58.324Z,11.95
2023-04-28T22:05:26.691Z,10.95
2023-04-28T22:07:55.094Z,11.02
2023-04-28T22:10:23.763Z,11.57
2023-04-28T22:12:52.018Z,12.55
2023-04-28T22:15:21.646Z,11.95
2023-04-28T22:17:49.811Z,11.02
2023-04-28T22:20:18.131Z,11.27
2023-04-28T22:22:46.275Z,11.35
2023-04-28T22:25:14.431Z,11.13
2023-04-28T22:27:42.602Z,11.40
2023-04-28T22:30:11.755Z,11.57
2023-04-28T22:32:44.432Z,11.30
2023-04-28T22:35:13.019Z,11.13
2023-04-28T22:37:41.188Z,10.20
2023-04-28T22:40:11.072Z,10.95
2023-04-28T22:42:39.910Z,10.70
2023-04-28T22:45:10.369Z,11.77
2023-04-28T22:47:41.731Z,11.68
2023-04-28T22:50:10.855Z,12.10
2023-04-28T22:52:39.053Z,11.95
2023-04-28T22:55:10.661Z,12.45
2023-04-28T22:57:38.862Z,13.43
2023-04-28T23:00:08.533Z,15.02
2023-04-28T23:02:37.127Z,15.27
2023-04-28T23:05:07.450Z,15.63
2023-04-28T23:07:35.962Z,15.38
2023-04-28T23:10:05.039Z,14.52
2023-04-28T23:12:33.510Z,15.82
2023-04-28T23:15:02.255Z,15.55
2023-04-28T23:17:32.686Z,15.07
2023-04-28T23:20:00.793Z,15.90
2023-04-28T23:22:30.398Z,17.33
2023-04-28T23:24:58.549Z,18.08
2023-04-28T23:27:26.743Z,18.02
2023-04-28T23:29:55.055Z,16.80
2023-04-28T23:32:23.536Z,16.13
2023-04-28T23:34:51.968Z,16.92
2023-04-28T23:37:20.339Z,16.23
2023-04-28T23:39:50.454Z,14.52
2023-04-28T23:42:18.759Z,12.43
2023-04-28T23:44:46.896Z,11.00
2023-04-28T23:47:15.951Z,10.10
2023-04-28T23:49:49.911Z,10.32
2023-04-28T23:52:19.343Z,9.98
2023-04-28T23:54:47.518Z,9.85
2023-04-28T23:57:17.014Z,9.27
2023-04-28T23:59:45.190Z,9.30
